sensor_id;sensor_type;location;lat;lon;timestamp;temperature;humidity
15789;DHT22;59075;50.670;6.474;2022-10-18T05:02:00;20.90;99.90
15789;DHT22;59075;50.670;6.474;2022-10-18T05:04:27;20.90;99.90
15789;DHT22;59075;50.670;6.474;2022-10-18T05:06:54;20.90;99.90
15789;DHT22;59075;50.670;6.474;2022-10-18T05:09:20;20.80;99.90
15789;DHT22;59075;50.670;6.474;2022-10-18T05:11:49;20.90;99.90
15789;DHT22;59075;50.670;6.474;2022-10-18T05:14:16;20.80;99.90
15789;DHT22;59075;50.670;6.474;2022-10-18T05:16:42;20.80;99.90
15789;DHT22;59075;50.670;6.474;2022-10-18T05:19:11;20.80;99.90
15789;DHT22;59075;50.670;6.474;2022-10-18T05:21:37;20.80;99.90
15789;DHT22;59075;50.670;6.474;2022-10-18T05:24:04;20.90;99.90
15789;DHT22;59075;50.670;6.474;2022-10-18T05:26:31;20.70;99.90
15789;DHT22;59075;50.670;6.474;2022-10-18T05:28:58;20.90;99.90
15789;DHT22;59075;50.670;6.474;2022-10-18T05:31:24;20.80;99.90
15789;DHT22;59075;50.670;6.474;2022-10-18T05:33:51;20.70;99.90
15789;DHT22;59075;50.670;6.474;2022-10-18T05:36:19;20.90;99.90
15789;DHT22;59075;50.670;6.474;2022-10-18T05:38:46;20.90;99.90
15789;DHT22;59075;50.670;6.474;2022-10-18T05:41:13;20.90;99.90
15789;DHT22;59075;50.670;6.474;2022-10-18T05:43:40;20.90;99.90
15789;DHT22;59075;50.670;6.474;2022-10-18T05:46:06;20.80;99.90
15789;DHT22;59075;50.670;6.474;2022-10-18T05:48:33;20.90;99.90
15789;DHT22;59075;50.670;6.474;2022-10-18T05:51:00;21.00;99.90
15789;DHT22;59075;50.670;6.474;2022-10-18T05:53:28;20.80;99.90
15789;DHT22;59075;50.670;6.474;2022-10-18T05:55:59;20.90;99.90
15789;DHT22;59075;50.670;6.474;2022-10-18T05:58:31;20.70;99.90
15789;DHT22;59075;50.670;6.474;2022-10-18T06:00:58;20.80;99.90
15789;DHT22;59075;50.670;6.474;2022-10-18T06:03:25;20.60;99.90
15789;DHT22;59075;50.670;6.474;2022-10-18T06:05:58;20.80;99.90
15789;DHT22;59075;50.670;6.474;2022-10-18T06:08:25;20.60;99.90
15789;DHT22;59075;50.670;6.474;2022-10-18T06:10:53;20.80;99.90
15789;DHT22;59075;50.670;6.474;2022-10-18T06:13:20;20.80;99.90
15789;DHT22;59075;50.670;6.474;2022-10-18T06:15:47;20.90;99.90
15789;DHT22;59075;50.670;6.474;2022-10-18T06:18:13;20.70;99.90
15789;DHT22;59075;50.670;6.474;2022-10-18T06:20:40;20.90;99.90
15789;DHT22;59075;50.670;6.474;2022-10-18T06:23:07;20.90;99.90
15789;DHT22;59075;50.670;6.474;2022-10-18T06:25:33;20.90;99.90
15789;DHT22;59075;50.670;6.474;2022-10-18T06:28:02;20.90;99.90
15789;DHT22;59075;50.670;6.474;2022-10-18T06:30:29;20.90;99.90
15789;DHT22;59075;50.670;6.474;2022-10-18T06:32:58;20.90;99.90
15789;DHT22;59075;50.670;6.474;2022-10-18T06:35:25;20.90;99.90
15789;DHT22;59075;50.670;6.474;2022-10-18T06:37:52;20.90;99.90
15789;DHT22;59075;50.670;6.474;2022-10-18T06:40:19;20.80;99.90
15789;DHT22;59075;50.670;6.474;2022-10-18T06:42:45;20.90;99.90
15789;DHT22;59075;50.670;6.474;2022-10-18T06:45:14;20.80;99.90
15789;DHT22;59075;50.670;6.474;2022-10-18T06:47:42;20.70;99.90
15789;DHT22;59075;50.670;6.474;2022-10-18T06:50:09;20.90;99.90
15789;DHT22;59075;50.670;6.474;2022-10-18T06:52:37;20.80;99.90
15789;DHT22;59075;50.670;6.474;2022-10-18T06:55:06;21.00;99.90
15789;DHT22;59075;50.670;6.474;2022-10-18T06:57:33;20.80;99.90
15789;DHT22;59075;50.670;6.474;2022-10-18T07:00:00;20.80;99.90
15789;DHT22;59075;50.670;6.474;2022-10-18T07:02:28;20.90;99.90
15789;DHT22;59075;50.670;6.474;2022-10-18T07:04:55;20.90;99.90
15789;DHT22;59075;50.670;6.474;2022-10-18T07:07:21;20.90;99.90
15789;DHT22;59075;50.670;6.474;2022-10-18T07:09:48;20.80;99.90
15789;DHT22;59075;50.670;6.474;2022-10-18T07:12:15;20.80;99.90
15789;DHT22;59075;50.670;6.474;2022-10-18T07:14:42;20.90;99.90
15789;DHT22;59075;50.670;6.474;2022-10-18T07:17:10;20.80;99.90
15789;DHT22;59075;50.670;6.474;2022-10-18T07:19:38;20.90;99.90
15789;DHT22;59075;50.670;6.474;2022-10-18T07:22:04;20.90;99.90
15789;DHT22;59075;50.670;6.474;2022-10-18T07:24:31;20.90;99.90
15789;DHT22;59075;50.670;6.474;2022-10-18T07:26:58;20.80;99.90
15789;DHT22;59075;50.670;6.474;2022-10-18T07:29:24;20.90;99.90
15789;DHT22;59075;50.670;6.474;2022-10-18T07:31:51;20.90;99.90
15789;DHT22;59075;50.670;6.474;2022-10-18T07:34:18;20.80;99.90
15789;DHT22;59075;50.670;6.474;2022-10-18T07:36:46;20.80;99.90
15789;DHT22;59075;50.670;6.474;2022-10-18T07:39:13;20.90;99.90
15789;DHT22;59075;50.670;6.474;2022-10-18T07:41:39;20.90;99.90
15789;DHT22;59075;50.670;6.474;2022-10-18T07:44:06;20.90;99.90
15789;DHT22;59075;50.670;6.474;2022-10-18T07:46:33;20.80;99.90
15789;DHT22;59075;50.670;6.474;2022-10-18T07:49:00;20.90;99.90
15789;DHT22;59075;50.670;6.474;2022-10-18T07:51:26;20.80;99.90
15789;DHT22;59075;50.670;6.474;2022-10-18T07:53:56;20.90;99.90
15789;DHT22;59075;50.670;6.474;2022-10-18T07:56:23;20.90;99.90
15789;DHT22;59075;50.670;6.474;2022-10-18T07:58:51;20.90;99.90
15789;DHT22;59075;50.670;6.474;2022-10-18T08:01:19;21.00;99.90
15789;DHT22;59075;50.670;6.474;2022-10-18T08:03:46;20.90;99.90
15789;DHT22;59075;50.670;6.474;2022-10-18T08:06:15;20.90;99.90
15789;DHT22;59075;50.670;6.474;2022-10-18T08:08:43;20.90;99.90
15789;DHT22;59075;50.670;6.474;2022-10-18T08:11:13;21.00;99.90
15789;DHT22;59075;50.670;6.474;2022-10-18T08:13:40;20.90;99.90
15789;DHT22;59075;50.670;6.474;2022-10-18T08:16:09;20.90;99.90
15789;DHT22;59075;50.670;6.474;2022-10-18T08:18:37;20.90;99.90
15789;DHT22;59075;50.670;6.474;2022-10-18T08:21:07;21.00;99.90
15789;DHT22;59075;50.670;6.474;2022-10-18T08:23:34;20.90;99.90
15789;DHT22;59075;50.670;6.474;2022-10-18T08:26:03;21.00;99.90
15789;DHT22;59075;50.670;6.474;2022-10-18T08:28:31;20.90;99.90
15789;DHT22;59075;50.670;6.474;2022-10-18T08:31:01;21.00;99.90
15789;DHT22;59075;50.670;6.474;2022-10-18T08:33:29;21.00;99.90
15789;DHT22;59075;50.670;6.474;2022-10-18T08:35:56;20.80;99.90
15789;DHT22;59075;50.670;6.474;2022-10-18T08:38:24;21.00;99.90
15789;DHT22;59075;50.670;6.474;2022-10-18T08:40:51;21.00;99.90
15789;DHT22;59075;50.670;6.474;2022-10-18T08:43:27;21.00;99.90
15789;DHT22;59075;50.670;6.474;2022-10-18T08:45:56;21.00;99.90
15789;DHT22;59075;50.670;6.474;2022-10-18T08:48:28;21.10;99.90
15789;DHT22;59075;50.670;6.474;2022-10-18T08:50:57;21.10;99.90
15789;DHT22;59075;50.670;6.474;2022-10-18T08:53:27;21.10;99.90
15789;DHT22;59075;50.670;6.474;2022-10-18T08:56:01;21.10;99.90
15789;DHT22;59075;50.670;6.474;2022-10-18T08:58:31;21.10;99.90
15789;DHT22;59075;50.670;6.474;2022-10-18T09:01:10;21.10;99.90
15789;DHT22;59075;50.670;6.474;2022-10-18T09:03:57;21.30;99.90
15789;DHT22;59075;50.670;6.474;2022-10-18T09:06:31;21.10;99.90
15789;DHT22;59075;50.670;6.474;2022-10-18T09:09:07;21.10;99.90
15789;DHT22;59075;50.670;6.474;2022-10-18T09:11:49;21.20;99.90
15789;DHT22;59075;50.670;6.474;2022-10-18T09:17:30;21.10;99.90
15789;DHT22;59075;50.670;6.474;2022-10-18T09:20:14;21.20;99.90
15789;DHT22;59075;50.670;6.474;2022-10-18T09:22:51;21.20;99.90
15789;DHT22;59075;50.670;6.474;2022-10-18T09:25:19;21.20;99.90
15789;DHT22;59075;50.670;6.474;2022-10-18T09:27:54;21.20;99.90
15789;DHT22;59075;50.670;6.474;2022-10-18T09:30:31;21.10;99.90
15789;DHT22;59075;50.670;6.474;2022-10-18T09:33:09;21.20;99.90
15789;DHT22;59075;50.670;6.474;2022-10-18T09:35:43;21.20;99.90
15789;DHT22;59075;50.670;6.474;2022-10-18T09:38:16;21.10;99.90
15789;DHT22;59075;50.670;6.474;2022-10-18T09:40:50;21.20;99.90
15789;DHT22;59075;50.670;6.474;2022-10-18T09:43:20;21.20;99.90
15789;DHT22;59075;50.670;6.474;2022-10-18T09:45:49;21.20;99.90
15789;DHT22;59075;50.670;6.474;2022-10-18T09:48:21;21.20;99.90
15789;DHT22;59075;50.670;6.474;2022-10-18T09:50:55;21.30;99.90
15789;DHT22;59075;50.670;6.474;2022-10-18T09:53:29;21.10;99.90
15789;DHT22;59075;50.670;6.474;2022-10-18T09:56:01;21.20;99.90
15789;DHT22;59075;50.670;6.474;2022-10-18T09:58:41;21.20;99.90
15789;DHT22;59075;50.670;6.474;2022-10-18T10:01:09;21.10;99.90
15789;DHT22;59075;50.670;6.474;2022-10-18T10:03:39;21.10;99.90
15789;DHT22;59075;50.670;6.474;2022-10-18T10:06:22;21.10;99.90
15789;DHT22;59075;50.670;6.474;2022-10-18T10:08:54;21.20;99.90
15789;DHT22;59075;50.670;6.474;2022-10-18T10:11:32;21.20;99.90
15789;DHT22;59075;50.670;6.474;2022-10-18T10:14:13;21.20;99.90
15789;DHT22;59075;50.670;6.474;2022-10-18T10:16:49;21.10;99.90
15789;DHT22;59075;50.670;6.474;2022-10-18T10:19:21;21.20;99.90
15789;DHT22;59075;50.670;6.474;2022-10-18T10:21:50;21.20;99.90
15789;DHT22;59075;50.670;6.474;2022-10-18T10:24:24;21.20;99.90
15789;DHT22;59075;50.670;6.474;2022-10-18T10:27:00;21.20;99.90
15789;DHT22;59075;50.670;6.474;2022-10-18T10:29:50;21.10;99.90
15789;DHT22;59075;50.670;6.474;2022-10-18T10:32:19;21.20;99.90
15789;DHT22;59075;50.670;6.474;2022-10-18T10:34:48;21.10;99.90
15789;DHT22;59075;50.670;6.474;2022-10-18T10:37:26;21.20;99.90
15789;DHT22;59075;50.670;6.474;2022-10-18T10:40:18;21.20;99.90
15789;DHT22;59075;50.670;6.474;2022-10-18T10:42:58;21.10;99.90
15789;DHT22;59075;50.670;6.474;2022-10-18T10:45:27;21.10;99.90
15789;DHT22;59075;50.670;6.474;2022-10-18T10:48:03;21.20;99.90
15789;DHT22;59075;50.670;6.474;2022-10-18T10:50:45;21.20;99.90
15789;DHT22;59075;50.670;6.474;2022-10-18T10:56:23;21.20;99.90
15789;DHT22;59075;50.670;6.474;2022-10-18T10:58:51;21.20;99.90
15789;DHT22;59075;50.670;6.474;2022-10-18T11:01:28;21.20;99.90
15789;DHT22;59075;50.670;6.474;2022-10-18T11:03:57;21.20;99.90
15789;DHT22;59075;50.670;6.474;2022-10-18T11:06:37;21.30;99.90
15789;DHT22;59075;50.670;6.474;2022-10-18T11:09:12;21.20;99.90
15789;DHT22;59075;50.670;6.474;2022-10-18T11:11:48;21.30;99.90
15789;DHT22;59075;50.670;6.474;2022-10-18T11:14:22;21.20;99.90
15789;DHT22;59075;50.670;6.474;2022-10-18T11:16:55;21.30;99.90
15789;DHT22;59075;50.670;6.474;2022-10-18T11:19:33;21.20;99.90
15789;DHT22;59075;50.670;6.474;2022-10-18T11:22:08;21.30;99.90
15789;DHT22;59075;50.670;6.474;2022-10-18T11:24:37;21.30;99.90
15789;DHT22;59075;50.670;6.474;2022-10-18T11:27:09;21.30;99.90
15789;DHT22;59075;50.670;6.474;2022-10-18T11:29:48;21.30;99.90
15789;DHT22;59075;50.670;6.474;2022-10-18T11:32:22;21.30;99.90
15789;DHT22;59075;50.670;6.474;2022-10-18T11:35:02;21.30;99.90
15789;DHT22;59075;50.670;6.474;2022-10-18T11:37:48;21.40;99.90
15789;DHT22;59075;50.670;6.474;2022-10-18T11:40:34;21.40;99.90
15789;DHT22;59075;50.670;6.474;2022-10-18T11:43:09;21.30;99.90
15789;DHT22;59075;50.670;6.474;2022-10-18T11:45:41;21.40;99.90
15789;DHT22;59075;50.670;6.474;2022-10-18T11:48:30;21.30;99.90
15789;DHT22;59075;50.670;6.474;2022-10-18T11:51:01;21.40;99.90
15789;DHT22;59075;50.670;6.474;2022-10-18T11:53:36;21.30;99.90
15789;DHT22;59075;50.670;6.474;2022-10-18T11:56:12;21.30;99.90
15789;DHT22;59075;50.670;6.474;2022-10-18T11:58:49;21.30;99.90
15789;DHT22;59075;50.670;6.474;2022-10-18T12:01:26;21.40;99.90
15789;DHT22;59075;50.670;6.474;2022-10-18T12:04:00;21.40;99.90
15789;DHT22;59075;50.670;6.474;2022-10-18T12:06:32;21.30;99.90
15789;DHT22;59075;50.670;6.474;2022-10-18T12:09:04;21.30;99.90
15789;DHT22;59075;50.670;6.474;2022-10-18T12:11:40;21.20;99.90
15789;DHT22;59075;50.670;6.474;2022-10-18T12:14:16;21.30;99.90
15789;DHT22;59075;50.670;6.474;2022-10-18T12:16:48;21.30;99.90
15789;DHT22;59075;50.670;6.474;2022-10-18T12:19:19;21.30;99.90
15789;DHT22;59075;50.670;6.474;2022-10-18T12:21:46;21.30;99.90
15789;DHT22;59075;50.670;6.474;2022-10-18T12:24:18;21.30;99.90
15789;DHT22;59075;50.670;6.474;2022-10-18T12:26:46;21.20;99.90
15789;DHT22;59075;50.670;6.474;2022-10-18T12:29:20;21.30;99.90
15789;DHT22;59075;50.670;6.474;2022-10-18T12:31:51;21.30;99.90
15789;DHT22;59075;50.670;6.474;2022-10-18T12:34:26;21.20;99.90
15789;DHT22;59075;50.670;6.474;2022-10-18T12:39:55;21.30;99.90
15789;DHT22;59075;50.670;6.474;2022-10-18T12:42:26;21.40;99.90
15789;DHT22;59075;50.670;6.474;2022-10-18T12:45:02;21.30;99.90
15789;DHT22;59075;50.670;6.474;2022-10-18T12:47:29;21.30;99.90
15789;DHT22;59075;50.670;6.474;2022-10-18T12:49:58;21.40;99.90
15789;DHT22;59075;50.670;6.474;2022-10-18T12:52:27;21.30;99.90
15789;DHT22;59075;50.670;6.474;2022-10-18T13:00:57;21.20;99.90
15789;DHT22;59075;50.670;6.474;2022-10-18T13:09:34;21.30;99.90
15789;DHT22;59075;50.670;6.474;2022-10-18T13:12:45;21.30;99.90
15789;DHT22;59075;50.670;6.474;2022-10-18T13:15:29;21.40;99.90
15789;DHT22;59075;50.670;6.474;2022-10-18T13:18:03;21.40;99.90
15789;DHT22;59075;50.670;6.474;2022-10-18T13:20:38;21.50;99.90
15789;DHT22;59075;50.670;6.474;2022-10-18T13:23:15;21.40;99.90
15789;DHT22;59075;50.670;6.474;2022-10-18T13:25:56;21.40;99.90
15789;DHT22;59075;50.670;6.474;2022-10-18T13:28:31;21.50;99.90
15789;DHT22;59075;50.670;6.474;2022-10-18T13:31:01;21.40;99.90
15789;DHT22;59075;50.670;6.474;2022-10-18T13:33:36;21.50;99.90
15789;DHT22;59075;50.670;6.474;2022-10-18T13:36:04;21.40;99.90
15789;DHT22;59075;50.670;6.474;2022-10-18T13:38:38;21.40;99.90
15789;DHT22;59075;50.670;6.474;2022-10-18T13:41:11;21.50;99.90
15789;DHT22;59075;50.670;6.474;2022-10-18T13:47:08;21.50;99.90
15789;DHT22;59075;50.670;6.474;2022-10-18T13:52:57;21.40;99.90
15789;DHT22;59075;50.670;6.474;2022-10-18T13:55:39;21.50;99.90
15789;DHT22;59075;50.670;6.474;2022-10-18T13:58:16;21.60;99.90
15789;DHT22;59075;50.670;6.474;2022-10-18T14:00:53;21.50;99.90
15789;DHT22;59075;50.670;6.474;2022-10-18T14:06:33;21.50;99.90
15789;DHT22;59075;50.670;6.474;2022-10-18T14:09:03;21.50;99.90
15789;DHT22;59075;50.670;6.474;2022-10-18T14:11:36;21.60;99.90
15789;DHT22;59075;50.670;6.474;2022-10-18T14:14:13;21.50;99.90
15789;DHT22;59075;50.670;6.474;2022-10-18T14:16:46;21.50;99.90
15789;DHT22;59075;50.670;6.474;2022-10-18T14:19:18;21.50;99.90
15789;DHT22;59075;50.670;6.474;2022-10-18T14:21:52;21.50;99.90
15789;DHT22;59075;50.670;6.474;2022-10-18T14:24:22;21.50;99.90
15789;DHT22;59075;50.670;6.474;2022-10-18T14:27:08;21.40;99.90
15789;DHT22;59075;50.670;6.474;2022-10-18T14:29:37;21.50;99.90
15789;DHT22;59075;50.670;6.474;2022-10-18T14:32:07;21.50;99.90
15789;DHT22;59075;50.670;6.474;2022-10-18T14:34:34;21.50;99.90
15789;DHT22;59075;50.670;6.474;2022-10-18T14:37:02;21.50;99.90
15789;DHT22;59075;50.670;6.474;2022-10-18T14:39:29;21.40;99.90
15789;DHT22;59075;50.670;6.474;2022-10-18T14:41:57;21.50;99.90
15789;DHT22;59075;50.670;6.474;2022-10-18T14:44:25;21.50;99.90
15789;DHT22;59075;50.670;6.474;2022-10-18T14:46:59;21.50;99.90
15789;DHT22;59075;50.670;6.474;2022-10-18T14:49:26;21.50;99.90
15789;DHT22;59075;50.670;6.474;2022-10-18T14:51:55;21.50;99.90
15789;DHT22;59075;50.670;6.474;2022-10-18T14:54:24;21.50;99.90
15789;DHT22;59075;50.670;6.474;2022-10-18T14:56:53;21.50;99.90
15789;DHT22;59075;50.670;6.474;2022-10-18T14:59:22;21.50;99.90
15789;DHT22;59075;50.670;6.474;2022-10-18T15:01:54;21.40;99.90
15789;DHT22;59075;50.670;6.474;2022-10-18T15:04:21;21.40;99.90
15789;DHT22;59075;50.670;6.474;2022-10-18T15:06:48;21.50;99.90
15789;DHT22;59075;50.670;6.474;2022-10-18T15:09:19;21.50;99.90
15789;DHT22;59075;50.670;6.474;2022-10-18T15:11:46;21.50;99.90
15789;DHT22;59075;50.670;6.474;2022-10-18T15:14:17;21.50;99.90
15789;DHT22;59075;50.670;6.474;2022-10-18T15:16:44;21.50;99.90
15789;DHT22;59075;50.670;6.474;2022-10-18T15:19:27;21.40;99.90
15789;DHT22;59075;50.670;6.474;2022-10-18T15:21:57;21.40;99.90
15789;DHT22;59075;50.670;6.474;2022-10-18T15:24:30;21.40;99.90
15789;DHT22;59075;50.670;6.474;2022-10-18T15:27:00;21.40;99.90
15789;DHT22;59075;50.670;6.474;2022-10-18T15:29:29;21.40;99.90
15789;DHT22;59075;50.670;6.474;2022-10-18T15:32:06;21.40;99.90
15789;DHT22;59075;50.670;6.474;2022-10-18T15:34:34;21.40;99.90
15789;DHT22;59075;50.670;6.474;2022-10-18T15:37:15;21.40;99.90
15789;DHT22;59075;50.670;6.474;2022-10-18T15:39:42;21.40;99.90
15789;DHT22;59075;50.670;6.474;2022-10-18T15:42:34;21.40;99.90
15789;DHT22;59075;50.670;6.474;2022-10-18T15:45:01;21.40;99.90
15789;DHT22;59075;50.670;6.474;2022-10-18T15:48:00;21.40;99.90
15789;DHT22;59075;50.670;6.474;2022-10-18T15:50:47;21.40;99.90
15789;DHT22;59075;50.670;6.474;2022-10-18T15:53:34;21.40;99.90
15789;DHT22;59075;50.670;6.474;2022-10-18T15:56:04;21.40;99.90
15789;DHT22;59075;50.670;6.474;2022-10-18T15:58:38;21.40;99.90
15789;DHT22;59075;50.670;6.474;2022-10-18T16:01:12;21.40;99.90
15789;DHT22;59075;50.670;6.474;2022-10-18T16:03:40;21.40;99.90
15789;DHT22;59075;50.670;6.474;2022-10-18T16:06:10;21.40;99.90
15789;DHT22;59075;50.670;6.474;2022-10-18T16:08:39;21.40;99.90
15789;DHT22;59075;50.670;6.474;2022-10-18T16:11:08;21.40;99.90
15789;DHT22;59075;50.670;6.474;2022-10-18T16:13:38;21.40;99.90
15789;DHT22;59075;50.670;6.474;2022-10-18T16:16:05;21.40;99.90
15789;DHT22;59075;50.670;6.474;2022-10-18T16:18:32;21.40;99.90
15789;DHT22;59075;50.670;6.474;2022-10-18T16:20:59;21.30;99.90
15789;DHT22;59075;50.670;6.474;2022-10-18T16:23:27;21.40;99.90
15789;DHT22;59075;50.670;6.474;2022-10-18T16:25:55;21.40;99.90
15789;DHT22;59075;50.670;6.474;2022-10-18T16:28:23;21.30;99.90
15789;DHT22;59075;50.670;6.474;2022-10-18T16:30:54;21.30;99.90
15789;DHT22;59075;50.670;6.474;2022-10-18T16:33:22;21.40;99.90
15789;DHT22;59075;50.670;6.474;2022-10-18T16:35:49;21.40;99.90
15789;DHT22;59075;50.670;6.474;2022-10-18T16:38:21;21.40;99.90
15789;DHT22;59075;50.670;6.474;2022-10-18T16:40:50;21.30;99.90
15789;DHT22;59075;50.670;6.474;2022-10-18T16:43:17;21.40;99.90
15789;DHT22;59075;50.670;6.474;2022-10-18T16:45:44;21.40;99.90
15789;DHT22;59075;50.670;6.474;2022-10-18T16:48:13;21.30;99.90
15789;DHT22;59075;50.670;6.474;2022-10-18T16:50:40;21.30;99.90
15789;DHT22;59075;50.670;6.474;2022-10-18T16:53:07;21.30;99.90
15789;DHT22;59075;50.670;6.474;2022-10-18T16:55:34;21.30;99.90
15789;DHT22;59075;50.670;6.474;2022-10-18T16:58:03;21.30;99.90
15789;DHT22;59075;50.670;6.474;2022-10-18T17:00:30;21.40;99.90
15789;DHT22;59075;50.670;6.474;2022-10-18T17:02:56;21.30;99.90
15789;DHT22;59075;50.670;6.474;2022-10-18T17:05:23;21.30;99.90
15789;DHT22;59075;50.670;6.474;2022-10-18T17:07:50;21.30;99.90
15789;DHT22;59075;50.670;6.474;2022-10-18T17:10:19;21.30;99.90
15789;DHT22;59075;50.670;6.474;2022-10-18T17:12:46;21.30;99.90
15789;DHT22;59075;50.670;6.474;2022-10-18T17:15:14;21.30;99.90
15789;DHT22;59075;50.670;6.474;2022-10-18T17:17:41;21.30;99.90
15789;DHT22;59075;50.670;6.474;2022-10-18T17:20:09;21.30;99.90
15789;DHT22;59075;50.670;6.474;2022-10-18T17:22:37;21.30;99.90
15789;DHT22;59075;50.670;6.474;2022-10-18T17:25:04;21.30;99.90
15789;DHT22;59075;50.670;6.474;2022-10-18T17:27:31;21.30;99.90
15789;DHT22;59075;50.670;6.474;2022-10-18T17:29:57;21.30;99.90
15789;DHT22;59075;50.670;6.474;2022-10-18T17:32:25;21.30;99.90
15789;DHT22;59075;50.670;6.474;2022-10-18T17:34:52;21.30;99.90
15789;DHT22;59075;50.670;6.474;2022-10-18T17:37:19;21.30;99.90
15789;DHT22;59075;50.670;6.474;2022-10-18T17:39:46;21.30;99.90
15789;DHT22;59075;50.670;6.474;2022-10-18T17:42:12;21.30;99.90
15789;DHT22;59075;50.670;6.474;2022-10-18T17:44:39;21.30;99.90
15789;DHT22;59075;50.670;6.474;2022-10-18T17:47:07;21.20;99.90
15789;DHT22;59075;50.670;6.474;2022-10-18T17:49:35;21.30;99.90
15789;DHT22;59075;50.670;6.474;2022-10-18T17:52:02;21.30;99.90
15789;DHT22;59075;50.670;6.474;2022-10-18T17:54:29;21.30;99.90
15789;DHT22;59075;50.670;6.474;2022-10-18T17:56:56;21.30;99.90
15789;DHT22;59075;50.670;6.474;2022-10-18T17:59:22;21.30;99.90
15789;DHT22;59075;50.670;6.474;2022-10-18T18:01:49;21.30;99.90
15789;DHT22;59075;50.670;6.474;2022-10-18T18:04:16;21.30;99.90
15789;DHT22;59075;50.670;6.474;2022-10-18T18:06:44;21.20;99.90
15789;DHT22;59075;50.670;6.474;2022-10-18T18:09:14;21.20;99.90
15789;DHT22;59075;50.670;6.474;2022-10-18T18:11:43;21.20;99.90
15789;DHT22;59075;50.670;6.474;2022-10-18T18:14:11;21.20;99.90
15789;DHT22;59075;50.670;6.474;2022-10-18T18:16:41;21.20;99.90
15789;DHT22;59075;50.670;6.474;2022-10-18T18:19:09;21.20;99.90
15789;DHT22;59075;50.670;6.474;2022-10-18T18:21:36;21.20;99.90
15789;DHT22;59075;50.670;6.474;2022-10-18T18:24:05;21.20;99.90
15789;DHT22;59075;50.670;6.474;2022-10-18T18:26:33;21.20;99.90
15789;DHT22;59075;50.670;6.474;2022-10-18T18:29:00;21.20;99.90
15789;DHT22;59075;50.670;6.474;2022-10-18T18:31:27;21.20;99.90
15789;DHT22;59075;50.670;6.474;2022-10-18T18:33:55;21.20;99.90
15789;DHT22;59075;50.670;6.474;2022-10-18T18:36:24;21.20;99.90
15789;DHT22;59075;50.670;6.474;2022-10-18T18:38:53;21.20;99.90
15789;DHT22;59075;50.670;6.474;2022-10-18T18:41:23;21.20;99.90
15789;DHT22;59075;50.670;6.474;2022-10-18T18:43:51;21.20;99.90
15789;DHT22;59075;50.670;6.474;2022-10-18T18:46:18;21.20;99.90
15789;DHT22;59075;50.670;6.474;2022-10-18T18:48:45;21.20;99.90
15789;DHT22;59075;50.670;6.474;2022-10-18T18:51:13;21.10;99.90
15789;DHT22;59075;50.670;6.474;2022-10-18T18:53:41;21.20;99.90
15789;DHT22;59075;50.670;6.474;2022-10-18T18:56:11;21.20;99.90
15789;DHT22;59075;50.670;6.474;2022-10-18T18:58:40;21.20;99.90
15789;DHT22;59075;50.670;6.474;2022-10-18T19:01:10;21.10;99.90
15789;DHT22;59075;50.670;6.474;2022-10-18T19:03:39;21.20;99.90
15789;DHT22;59075;50.670;6.474;2022-10-18T19:06:08;21.20;99.90
15789;DHT22;59075;50.670;6.474;2022-10-18T19:08:37;21.20;99.90
15789;DHT22;59075;50.670;6.474;2022-10-18T19:11:05;21.20;99.90
15789;DHT22;59075;50.670;6.474;2022-10-18T19:13:32;21.20;99.90
15789;DHT22;59075;50.670;6.474;2022-10-18T19:16:19;21.10;99.90
15789;DHT22;59075;50.670;6.474;2022-10-18T19:18:54;21.10;99.90
15789;DHT22;59075;50.670;6.474;2022-10-18T19:21:23;21.10;99.90
15789;DHT22;59075;50.670;6.474;2022-10-18T19:23:50;21.10;99.90
15789;DHT22;59075;50.670;6.474;2022-10-18T19:26:25;21.10;99.90
15789;DHT22;59075;50.670;6.474;2022-10-18T19:28:52;21.10;99.90
15789;DHT22;59075;50.670;6.474;2022-10-18T19:31:21;21.10;99.90
15789;DHT22;59075;50.670;6.474;2022-10-18T19:33:48;21.10;99.90
15789;DHT22;59075;50.670;6.474;2022-10-18T19:36:15;21.10;99.90
15789;DHT22;59075;50.670;6.474;2022-10-18T19:38:41;21.10;99.90
15789;DHT22;59075;50.670;6.474;2022-10-18T19:41:08;21.10;99.90
15789;DHT22;59075;50.670;6.474;2022-10-18T19:43:35;21.10;99.90
15789;DHT22;59075;50.670;6.474;2022-10-18T19:46:02;21.10;99.90
15789;DHT22;59075;50.670;6.474;2022-10-18T19:48:30;21.10;99.90
15789;DHT22;59075;50.670;6.474;2022-10-18T19:51:02;21.10;99.90
15789;DHT22;59075;50.670;6.474;2022-10-18T19:53:29;21.10;99.90
15789;DHT22;59075;50.670;6.474;2022-10-18T19:55:57;21.10;99.90
15789;DHT22;59075;50.670;6.474;2022-10-18T19:58:24;21.10;99.90
15789;DHT22;59075;50.670;6.474;2022-10-18T20:00:51;21.10;99.90
15789;DHT22;59075;50.670;6.474;2022-10-18T20:03:18;21.10;99.90
15789;DHT22;59075;50.670;6.474;2022-10-18T20:05:46;21.10;99.90
15789;DHT22;59075;50.670;6.474;2022-10-18T20:08:18;21.10;99.90
15789;DHT22;59075;50.670;6.474;2022-10-18T20:10:45;21.10;99.90
15789;DHT22;59075;50.670;6.474;2022-10-18T20:13:12;21.10;99.90
15789;DHT22;59075;50.670;6.474;2022-10-18T20:15:51;21.10;99.90
15789;DHT22;59075;50.670;6.474;2022-10-18T20:18:18;21.10;99.90
15789;DHT22;59075;50.670;6.474;2022-10-18T20:20:47;21.10;99.90
15789;DHT22;59075;50.670;6.474;2022-10-18T20:23:14;21.10;99.90
15789;DHT22;59075;50.670;6.474;2022-10-18T20:25:41;21.10;99.90
15789;DHT22;59075;50.670;6.474;2022-10-18T20:28:08;21.00;99.90
15789;DHT22;59075;50.670;6.474;2022-10-18T20:30:35;21.10;99.90
15789;DHT22;59075;50.670;6.474;2022-10-18T20:33:01;21.10;99.90
15789;DHT22;59075;50.670;6.474;2022-10-18T20:35:28;21.10;99.90
15789;DHT22;59075;50.670;6.474;2022-10-18T20:37:56;21.10;99.90
15789;DHT22;59075;50.670;6.474;2022-10-18T20:40:24;21.10;99.90
15789;DHT22;59075;50.670;6.474;2022-10-18T20:42:51;21.10;99.90
15789;DHT22;59075;50.670;6.474;2022-10-18T20:45:17;21.10;99.90
15789;DHT22;59075;50.670;6.474;2022-10-18T20:47:44;21.00;99.90
15789;DHT22;59075;50.670;6.474;2022-10-18T20:50:11;21.00;99.90
15789;DHT22;59075;50.670;6.474;2022-10-18T20:52:38;21.00;99.90
15789;DHT22;59075;50.670;6.474;2022-10-18T20:55:06;21.00;99.90
15789;DHT22;59075;50.670;6.474;2022-10-18T20:57:33;21.00;99.90
15789;DHT22;59075;50.670;6.474;2022-10-18T20:59:59;21.00;99.90
